createdAt,value
2022-11-05T00:00:35.728Z,99116.00
2022-11-05T00:03:20.887Z,99119.59
2022-11-05T00:06:27.994Z,99112.09
2022-11-05T00:12:58.672Z,99105.12
2022-11-05T00:15:43.701Z,99098.97
2022-11-05T00:18:10.262Z,99101.28
2022-11-05T00:20:36.959Z,99093.72
2022-11-05T00:23:23.831Z,99096.50
2022-11-05T00:28:27.291Z,99101.78
2022-11-05T00:30:54.944Z,99104.63
2022-11-05T00:33:21.886Z,99107.13
2022-11-05T00:45:00.731Z,99119.69
2022-11-05T00:47:46.171Z,99112.91
2022-11-05T00:50:13.174Z,99107.34
2022-11-05T00:52:59.688Z,99115.72
2022-11-05T00:55:41.268Z,99101.87
2022-11-05T00:58:11.536Z,99112.34
2022-11-05T01:00:40.289Z,99115.16
2022-11-05T01:03:10.692Z,99123.16
2022-11-05T01:05:44.232Z,99116.25
2022-11-05T01:08:12.248Z,99125.78
2022-11-05T01:10:43.147Z,99114.75
2022-11-05T01:13:12.933Z,99124.66
2022-11-05T01:15:41.045Z,99124.06
2022-11-05T01:18:07.780Z,99121.41
2022-11-05T01:20:34.449Z,99123.47
2022-11-05T01:23:01.036Z,99123.63
2022-11-05T01:25:49.679Z,99125.97
2022-11-05T01:28:16.347Z,99114.34
2022-11-05T01:30:42.948Z,99116.53
2022-11-05T01:33:09.929Z,99122.69
2022-11-05T01:35:36.944Z,99134.28
2022-11-05T01:38:03.680Z,99148.34
2022-11-05T02:02:39.081Z,99153.38
2022-11-05T02:08:22.538Z,99147.19
2022-11-05T02:13:24.630Z,99149.75
2022-11-05T02:22:09.744Z,99152.72
2022-11-05T02:24:44.835Z,99157.44
2022-11-05T02:27:29.751Z,99156.94
2022-11-05T02:45:46.411Z,99168.84
2022-11-05T02:48:26.040Z,99170.69
2022-11-05T02:51:35.957Z,99172.91
2022-11-05T02:54:16.342Z,99173.62
2022-11-05T02:56:47.590Z,99177.84
2022-11-05T02:59:14.246Z,99178.13
2022-11-05T03:05:35.584Z,99179.44
2022-11-05T03:08:13.158Z,99177.34
2022-11-05T03:10:50.510Z,99171.50
2022-11-05T03:13:36.342Z,99178.87
2022-11-05T03:21:48.861Z,99185.75
2022-11-05T03:24:30.329Z,99192.75
2022-11-05T03:27:02.459Z,99198.09
2022-11-05T03:29:35.387Z,99207.09
2022-11-05T03:32:05.408Z,99203.13
2022-11-05T03:35:02.847Z,99203.28
2022-11-05T03:38:38.551Z,99206.38
2022-11-05T03:41:08.663Z,99220.59
2022-11-05T03:43:40.401Z,99213.38
2022-11-05T03:46:16.689Z,99215.50
2022-11-05T03:48:47.536Z,99215.06
2022-11-05T03:52:07.734Z,99216.97
2022-11-05T03:54:35.081Z,99225.69
2022-11-05T03:57:09.303Z,99218.00
2022-11-05T03:59:45.173Z,99215.47
2022-11-05T04:02:13.790Z,99222.72
2022-11-05T04:04:41.276Z,99209.41
2022-11-05T04:07:52.276Z,99208.19
2022-11-05T04:10:39.436Z,99202.72
2022-11-05T04:13:24.953Z,99196.03
2022-11-05T04:16:14.753Z,99195.97
2022-11-05T04:18:41.684Z,99207.63
2022-11-05T04:21:28.654Z,99207.59
2022-11-05T04:24:09.252Z,99209.41
2022-11-05T04:26:40.770Z,99208.87
2022-11-05T04:29:26.393Z,99204.97
2022-11-05T04:31:53.255Z,99202.84
2022-11-05T04:34:22.048Z,99199.56
2022-11-05T04:36:50.371Z,99200.09
2022-11-05T04:50:46.856Z,99198.19
2022-11-05T04:54:04.948Z,99196.72
2022-11-05T05:17:37.825Z,99202.69
2022-11-05T05:22:59.917Z,99206.50
2022-11-05T05:25:26.797Z,99202.63
2022-11-05T05:27:57.528Z,99203.06
2022-11-05T05:30:57.623Z,99205.41
2022-11-05T05:33:25.272Z,99216.75
2022-11-05T05:35:51.839Z,99214.19
2022-11-05T06:16:21.692Z,99279.94
2022-11-05T06:18:48.263Z,99282.09
2022-11-05T06:21:20.274Z,99280.97
2022-11-05T06:23:50.776Z,99286.88
2022-11-05T06:26:18.642Z,99293.16
2022-11-05T06:28:46.033Z,99300.78
2022-11-05T06:47:59.334Z,99292.72
2022-11-05T06:50:27.896Z,99311.88
2022-11-05T06:52:59.407Z,99300.50
2022-11-05T06:55:28.321Z,99303.94
2022-11-05T06:57:57.060Z,99306.78
2022-11-05T07:03:15.820Z,99314.59
2022-11-05T07:05:51.457Z,99314.66
2022-11-05T07:13:28.664Z,99318.72
2022-11-05T07:16:06.491Z,99316.22
2022-11-05T07:39:11.950Z,99321.66
2022-11-05T07:41:38.652Z,99323.44
2022-11-05T07:49:44.032Z,99333.16
2022-11-05T08:16:52.954Z,99320.75
2022-11-05T08:33:16.156Z,99312.72
2022-11-05T08:35:45.876Z,99304.66
2022-11-05T08:38:19.963Z,99317.66
2022-11-05T08:40:55.090Z,99315.59
2022-11-05T08:43:33.078Z,99317.72
2022-11-05T08:46:02.718Z,99318.31
2022-11-05T08:54:06.993Z,99322.72
2022-11-05T09:02:25.123Z,99338.50
2022-11-05T09:04:52.651Z,99336.97
2022-11-05T09:07:19.258Z,99340.66
2022-11-05T09:09:45.792Z,99347.69
2022-11-05T09:12:16.240Z,99359.78
2022-11-05T09:14:48.454Z,99359.56
2022-11-05T09:17:28.846Z,99357.03
2022-11-05T09:28:31.602Z,99374.28
2022-11-05T09:30:58.187Z,99369.63
2022-11-05T09:33:26.306Z,99372.22
2022-11-05T09:35:53.880Z,99357.03
2022-11-05T09:38:20.501Z,99354.53
2022-11-05T09:41:26.626Z,99358.38
2022-11-05T09:44:01.759Z,99351.72
2022-11-05T09:46:41.315Z,99343.97
2022-11-05T09:49:20.592Z,99337.50
2022-11-05T09:51:47.187Z,99347.50
2022-11-05T09:54:15.713Z,99341.84
2022-11-05T09:59:58.448Z,99351.75
2022-11-05T10:02:39.886Z,99360.47
2022-11-05T10:05:15.280Z,99361.34
2022-11-05T10:07:53.007Z,99353.31
2022-11-05T10:10:44.508Z,99347.75
2022-11-05T10:13:35.284Z,99355.88
2022-11-05T10:18:58.568Z,99344.50
2022-11-05T10:21:51.588Z,99344.94
2022-11-05T10:24:19.462Z,99348.41
2022-11-05T10:26:52.453Z,99356.38
2022-11-05T10:31:57.125Z,99356.84
2022-11-05T10:34:28.774Z,99349.44
2022-11-05T10:39:36.956Z,99349.12
2022-11-05T10:42:59.769Z,99359.84
2022-11-05T10:46:16.730Z,99361.66
2022-11-05T10:48:52.737Z,99371.94
2022-11-05T10:51:19.783Z,99371.97
2022-11-05T10:56:36.814Z,99373.53
2022-11-05T10:59:10.952Z,99377.50
2022-11-05T11:31:58.797Z,99377.59
2022-11-05T11:34:39.448Z,99382.94
2022-11-05T11:37:22.765Z,99383.87
2022-11-05T11:40:03.461Z,99381.94
2022-11-05T11:45:25.787Z,99382.84
2022-11-05T11:47:52.608Z,99389.84
2022-11-05T12:04:06.418Z,99406.66
2022-11-05T12:06:38.104Z,99392.97
2022-11-05T12:09:42.165Z,99391.84
2022-11-05T12:12:52.130Z,99399.25
2022-11-05T12:15:35.571Z,99389.13
2022-11-05T12:18:05.571Z,99392.44
2022-11-05T12:20:48.446Z,99404.88
2022-11-05T12:27:33.920Z,99421.56
2022-11-05T12:30:03.453Z,99429.97
2022-11-05T12:33:24.639Z,99430.37
2022-11-05T12:36:03.263Z,99425.22
2022-11-05T12:38:38.658Z,99418.12
2022-11-05T12:46:58.794Z,99421.66
2022-11-05T12:49:46.422Z,99424.28
2022-11-05T12:57:41.476Z,99443.22
2022-11-05T13:00:14.833Z,99445.13
2022-11-05T13:02:49.702Z,99436.59
2022-11-05T13:05:28.328Z,99454.56
2022-11-05T13:08:07.657Z,99451.50
2022-11-05T13:10:44.834Z,99442.59
2022-11-05T13:13:18.448Z,99448.88
2022-11-05T13:15:53.051Z,99450.53
2022-11-05T13:18:30.523Z,99462.09
2022-11-05T13:21:17.327Z,99457.28
2022-11-05T13:23:53.913Z,99466.03
2022-11-05T13:30:49.533Z,99456.56
2022-11-05T13:33:27.454Z,99460.84
2022-11-05T13:36:23.507Z,99442.41
2022-11-05T13:39:00.085Z,99449.47
2022-11-05T13:42:03.934Z,99446.41
2022-11-05T13:44:48.608Z,99459.03
2022-11-05T13:48:08.445Z,99451.41
2022-11-05T13:51:04.817Z,99456.34
2022-11-05T14:04:36.431Z,99465.47
2022-11-05T14:07:15.722Z,99458.63
2022-11-05T14:09:44.034Z,99452.78
2022-11-05T14:12:39.699Z,99464.84
2022-11-05T14:18:18.290Z,99473.75
2022-11-05T14:21:07.409Z,99471.53
2022-11-05T14:23:40.122Z,99485.53
2022-11-05T14:34:24.053Z,99481.16
2022-11-05T14:37:12.673Z,99486.66
2022-11-05T14:39:40.419Z,99492.75
2022-11-05T14:42:11.870Z,99495.44
2022-11-05T14:47:30.833Z,99492.72
2022-11-05T14:50:20.113Z,99502.78
2022-11-05T14:52:55.542Z,99505.59
2022-11-05T14:55:37.751Z,99505.41
2022-11-05T14:58:19.214Z,99512.41
2022-11-05T15:01:40.073Z,99514.72
2022-11-05T15:04:46.182Z,99512.59
2022-11-05T15:07:35.258Z,99511.38
2022-11-05T15:10:26.678Z,99514.94
2022-11-05T15:13:02.430Z,99516.78
2022-11-05T15:15:39.062Z,99514.81
2022-11-05T15:18:29.436Z,99515.72
2022-11-05T15:29:35.701Z,99530.28
2022-11-05T15:32:02.518Z,99520.19
2022-11-05T15:34:52.482Z,99526.22
2022-11-05T15:37:27.013Z,99541.44
2022-11-05T15:39:55.258Z,99541.00
2022-11-05T15:42:26.632Z,99541.22
2022-11-05T15:44:55.766Z,99545.56
2022-11-05T15:47:59.523Z,99541.44
2022-11-05T15:50:45.026Z,99539.72
2022-11-05T15:54:15.584Z,99549.06
2022-11-05T15:56:39.935Z,99557.00
2022-11-05T15:59:21.879Z,99558.75
2022-11-05T16:01:53.504Z,99549.97
2022-11-05T16:04:23.356Z,99554.06
2022-11-05T16:06:53.062Z,99556.78
2022-11-05T16:09:31.517Z,99562.53
2022-11-05T16:12:20.572Z,99557.88
2022-11-05T16:15:08.814Z,99571.56
2022-11-05T16:17:55.305Z,99571.56
2022-11-05T16:20:23.880Z,99573.56
2022-11-05T16:23:04.751Z,99581.81
2022-11-05T16:25:43.112Z,99588.03
2022-11-05T16:28:20.838Z,99583.25
2022-11-05T16:31:02.473Z,99596.97
2022-11-05T16:33:43.504Z,99590.19
2022-11-05T16:36:10.348Z,99594.75
2022-11-05T16:38:36.999Z,99601.22
2022-11-05T16:41:06.833Z,99595.31
2022-11-05T16:43:36.715Z,99595.56
2022-11-05T16:46:03.289Z,99597.59
2022-11-05T16:48:29.982Z,99599.91
2022-11-05T16:50:56.742Z,99599.13
2022-11-05T16:53:26.495Z,99600.72
2022-11-05T16:55:54.858Z,99611.47
2022-11-05T16:58:23.971Z,99608.75
2022-11-05T17:00:52.629Z,99609.00
2022-11-05T17:03:19.234Z,99607.81
2022-11-05T17:05:46.117Z,99614.38
2022-11-05T17:08:13.048Z,99614.47
2022-11-05T17:10:50.567Z,99620.59
2022-11-05T17:13:19.233Z,99627.69
2022-11-05T17:15:50.923Z,99616.09
2022-11-05T17:18:19.124Z,99623.78
2022-11-05T17:20:51.711Z,99623.50
2022-11-05T17:23:20.958Z,99626.31
2022-11-05T17:25:51.328Z,99622.13
2022-11-05T17:28:19.268Z,99631.22
2022-11-05T17:30:52.127Z,99629.56
2022-11-05T17:33:20.004Z,99630.31
2022-11-05T17:35:46.633Z,99629.28
2022-11-05T17:38:13.534Z,99627.72
2022-11-05T17:40:40.490Z,99632.59
2022-11-05T17:43:07.576Z,99638.06
2022-11-05T17:45:34.793Z,99637.47
2022-11-05T17:48:03.295Z,99637.94
2022-11-05T17:50:30.190Z,99634.31
2022-11-05T17:52:56.801Z,99634.22
2022-11-05T17:55:23.484Z,99644.56
2022-11-05T17:57:52.716Z,99638.34
2022-11-05T18:00:22.568Z,99648.69
2022-11-05T18:02:50.479Z,99644.31
2022-11-05T18:05:18.434Z,99644.25
2022-11-05T18:07:45.920Z,99647.62
2022-11-05T18:10:13.597Z,99659.13
2022-11-05T18:12:40.824Z,99661.38
2022-11-05T18:15:08.183Z,99665.03
2022-11-05T18:17:34.772Z,99676.62
2022-11-05T18:20:01.366Z,99676.19
2022-11-05T18:22:28.147Z,99685.66
2022-11-05T18:24:54.926Z,99675.00
2022-11-05T18:27:24.534Z,99681.47
2022-11-05T18:29:51.270Z,99680.31
2022-11-05T18:32:17.932Z,99690.09
2022-11-05T18:34:44.516Z,99693.25
2022-11-05T18:37:11.444Z,99699.00
2022-11-05T18:39:38.206Z,99700.09
2022-11-05T18:42:05.061Z,99704.53
2022-11-05T18:44:36.269Z,99711.28
2022-11-05T18:47:06.894Z,99706.03
2022-11-05T18:49:53.035Z,99712.41
2022-11-05T18:57:54.321Z,99717.66
2022-11-05T19:00:20.973Z,99720.31
2022-11-05T19:02:48.856Z,99720.22
2022-11-05T19:05:36.945Z,99729.28
2022-11-05T19:08:03.664Z,99731.16
2022-11-05T19:10:51.454Z,99734.75
2022-11-05T19:36:18.626Z,99757.97
2022-11-05T19:39:09.113Z,99752.38
2022-11-05T19:41:56.580Z,99767.53
2022-11-05T19:44:45.453Z,99769.16
2022-11-05T19:47:12.003Z,99773.63
2022-11-05T19:55:26.172Z,99784.53
2022-11-05T19:57:52.791Z,99790.94
2022-11-05T20:28:10.311Z,99821.34
2022-11-05T20:30:38.935Z,99825.41
2022-11-05T20:33:05.519Z,99827.47
2022-11-05T20:36:13.188Z,99833.59
2022-11-05T20:39:29.971Z,99824.22
2022-11-05T20:47:48.263Z,99838.56
2022-11-05T21:30:36.863Z,99859.34
2022-11-05T21:33:05.263Z,99862.47
2022-11-05T21:35:32.509Z,99860.41
2022-11-05T21:37:59.243Z,99861.09
2022-11-05T21:40:26.509Z,99862.41
2022-11-05T21:42:53.054Z,99866.50
2022-11-05T21:45:39.657Z,99855.00
2022-11-05T21:48:07.420Z,99858.28
2022-11-05T21:50:52.891Z,99861.31
2022-11-05T22:00:05.394Z,99872.78
2022-11-05T22:02:32.220Z,99862.75
2022-11-05T22:20:50.091Z,99867.06
2022-11-05T22:23:16.700Z,99867.19
2022-11-05T22:25:43.356Z,99877.19
2022-11-05T23:25:13.611Z,99890.78
2022-11-05T23:27:41.224Z,99886.87
2022-11-05T23:30:11.898Z,99893.50
2022-11-05T23:32:38.732Z,99895.97
2022-11-05T23:35:05.996Z,99897.94
2022-11-05T23:40:10.835Z,99902.19
2022-11-05T23:42:56.585Z,99902.94
2022-11-05T23:45:42.044Z,99902.69
2022-11-05T23:48:18.388Z,99896.97
2022-11-05T23:50:57.420Z,99898.16
2022-11-05T23:53:42.156Z,99900.66
2022-11-05T23:59:23.495Z,99901.81
